Time;durP1;ratioP1;P1;durP2;ratioP2;P2;SDS_P1;SDS_P2;PMS_P1;PMS_P2;Temp;Humidity;BMP_temperature;BMP_pressure;BME280_temperature;BME280_humidity;BME280_pressure;Samples;Min_cycle;Max_cycle;Signal;HPM_P1;HPM_P2
2021/10/15 00:00:53;;;;;;;21.57;3.07;;;13.30;99.90;;;;;;5058181;28;20863;-84
2021/10/15 00:03:20;;;;;;;23.70;3.13;;;13.30;99.90;;;;;;5058553;28;20453;-84
2021/10/15 00:05:46;;;;;;;21.77;2.97;;;13.30;99.90;;;;;;5058739;28;20451;-85
2021/10/15 00:08:14;;;;;;;23.63;2.40;;;13.30;99.90;;;;;;5059253;28;20513;-84
2021/10/15 00:10:41;;;;;;;23.20;2.80;;;13.30;99.90;;;;;;5059154;28;20480;-83
2021/10/15 00:13:08;;;;;;;22.50;3.47;;;13.30;99.90;;;;;;5061912;28;20462;-84
2021/10/15 00:15:35;;;;;;;24.10;3.20;;;13.30;99.90;;;;;;5063044;28;20453;-83
2021/10/15 00:18:02;;;;;;;22.77;2.70;;;13.30;99.90;;;;;;5062435;28;20533;-84
2021/10/15 00:20:29;;;;;;;20.53;3.30;;;13.30;99.90;;;;;;5062891;28;21033;-83
2021/10/15 00:22:55;;;;;;;25.83;3.93;;;13.30;99.90;;;;;;5062020;28;20524;-84
2021/10/15 00:25:24;;;;;;;26.47;4.37;;;13.30;99.90;;;;;;5062900;28;20462;-84
2021/10/15 00:27:51;;;;;;;28.83;3.80;;;13.30;99.90;;;;;;5061599;28;20674;-85
2021/10/15 00:30:18;;;;;;;22.40;3.70;;;13.30;99.90;;;;;;5061776;28;20941;-84
2021/10/15 00:32:45;;;;;;;26.30;3.57;;;13.20;99.90;;;;;;5061862;28;20813;-84
2021/10/15 00:35:12;;;;;;;23.93;3.33;;;13.20;99.90;;;;;;5062345;28;20540;-84
2021/10/15 00:37:39;;;;;;;23.40;3.10;;;13.30;99.90;;;;;;5061133;28;20536;-84
2021/10/15 00:40:06;;;;;;;25.27;3.63;;;13.30;99.90;;;;;;5062571;28;20898;-84
2021/10/15 00:42:37;;;;;;;23.80;3.50;;;13.20;99.90;;;;;;5061174;28;20463;-85
2021/10/15 00:45:05;;;;;;;24.43;3.20;;;13.20;99.90;;;;;;5059494;28;20452;-84
2021/10/15 00:47:32;;;;;;;24.00;2.83;;;13.20;99.90;;;;;;5061504;28;20471;-84
2021/10/15 00:49:58;;;;;;;22.87;3.17;;;13.20;99.90;;;;;;5059471;28;20833;-84
2021/10/15 00:52:25;;;;;;;30.20;3.30;;;13.10;99.90;;;;;;5063204;28;20550;-84
2021/10/15 00:54:53;;;;;;;22.00;2.40;;;13.00;99.90;;;;;;5062950;28;20830;-85
2021/10/15 00:57:19;;;;;;;25.30;3.00;;;13.00;99.90;;;;;;5062082;28;20450;-84
2021/10/15 00:59:48;;;;;;;24.37;2.60;;;13.10;99.90;;;;;;5059953;28;20455;-83
2021/10/15 01:02:15;;;;;;;25.63;3.33;;;13.00;99.90;;;;;;5060811;28;20448;-84
2021/10/15 01:04:42;;;;;;;24.23;3.00;;;12.90;99.90;;;;;;5059989;28;20975;-83
2021/10/15 01:07:09;;;;;;;25.10;3.00;;;13.00;99.90;;;;;;5060781;28;20542;-84
2021/10/15 01:09:36;;;;;;;25.03;4.33;;;12.90;99.90;;;;;;5061550;28;20497;-85
2021/10/15 01:12:05;;;;;;;21.83;2.70;;;12.90;99.90;;;;;;5060736;28;20466;-84
2021/10/15 01:14:33;;;;;;;21.47;2.87;;;12.80;99.90;;;;;;5061183;28;20444;-84
2021/10/15 01:17:04;;;;;;;24.00;3.63;;;12.80;99.90;;;;;;5061331;28;20454;-84
2021/10/15 01:19:31;;;;;;;23.13;3.73;;;12.80;99.90;;;;;;5061533;28;20444;-84
2021/10/15 01:22:02;;;;;;;27.40;3.60;;;12.70;99.90;;;;;;5060434;28;20569;-84
2021/10/15 01:24:28;;;;;;;24.77;3.07;;;12.70;99.90;;;;;;5059909;28;20948;-84
2021/10/15 01:26:55;;;;;;;26.23;3.07;;;12.70;99.90;;;;;;5061354;28;21096;-84
2021/10/15 01:29:22;;;;;;;19.77;2.70;;;12.80;99.90;;;;;;5061129;28;20577;-84
2021/10/15 01:31:49;;;;;;;24.53;2.87;;;12.70;99.90;;;;;;5060154;28;20467;-84
2021/10/15 01:34:16;;;;;;;26.90;3.27;;;12.80;99.90;;;;;;5061537;28;20453;-85
2021/10/15 01:36:43;;;;;;;24.80;3.50;;;12.80;99.90;;;;;;5060505;28;20455;-85
2021/10/15 01:39:11;;;;;;;23.43;3.23;;;12.80;99.90;;;;;;5060719;28;20439;-85
2021/10/15 01:41:38;;;;;;;25.40;3.10;;;12.80;99.90;;;;;;5060430;28;20475;-84
2021/10/15 01:44:05;;;;;;;24.87;3.00;;;12.80;99.90;;;;;;5070582;28;20496;-83
2021/10/15 01:46:32;;;;;;;26.93;3.50;;;12.80;99.90;;;;;;5065878;28;20461;-84
2021/10/15 01:48:58;;;;;;;26.60;2.97;;;12.80;99.90;;;;;;5060615;28;20586;-84
2021/10/15 01:51:25;;;;;;;23.80;2.90;;;12.80;99.90;;;;;;5060931;28;20488;-84
2021/10/15 01:53:52;;;;;;;26.03;3.50;;;12.80;99.90;;;;;;5060803;28;20503;-84
2021/10/15 01:56:20;;;;;;;23.43;3.63;;;12.80;99.90;;;;;;5060125;28;20463;-84
2021/10/15 01:58:47;;;;;;;24.63;3.07;;;12.80;99.90;;;;;;5059611;28;20456;-84
2021/10/15 02:01:14;;;;;;;24.07;3.40;;;12.80;99.90;;;;;;5060590;28;20467;-84
2021/10/15 02:03:41;;;;;;;23.83;3.00;;;12.80;99.90;;;;;;5058438;28;20456;-84
2021/10/15 02:06:07;;;;;;;24.13;2.87;;;12.80;99.90;;;;;;5059576;28;20447;-84
2021/10/15 02:08:34;;;;;;;28.23;3.83;;;12.70;99.90;;;;;;5059550;28;20583;-84
2021/10/15 02:11:01;;;;;;;24.23;3.30;;;12.80;99.90;;;;;;5059666;28;20472;-85
2021/10/15 02:13:29;;;;;;;29.03;3.63;;;12.80;99.90;;;;;;5059900;28;20454;-83
2021/10/15 02:15:59;;;;;;;29.27;3.77;;;12.70;99.90;;;;;;5060439;28;20450;-84
2021/10/15 02:18:26;;;;;;;25.90;3.23;;;12.70;99.90;;;;;;5059701;28;20501;-85
2021/10/15 02:20:52;;;;;;;24.77;3.27;;;12.70;99.90;;;;;;5058717;28;20479;-83
2021/10/15 02:23:19;;;;;;;25.10;3.10;;;12.60;99.90;;;;;;5057965;28;20452;-84
2021/10/15 02:25:46;;;;;;;21.40;3.03;;;12.70;99.90;;;;;;5059108;28;20963;-83
2021/10/15 02:28:13;;;;;;;24.97;3.50;;;12.70;99.90;;;;;;5058787;28;20498;-84
2021/10/15 02:30:41;;;;;;;26.43;3.60;;;12.70;99.90;;;;;;5059212;28;21056;-85
2021/10/15 02:33:08;;;;;;;22.27;3.60;;;12.70;99.90;;;;;;5063440;28;20530;-84
2021/10/15 02:35:34;;;;;;;26.93;4.00;;;12.70;99.90;;;;;;5060839;28;20459;-84
2021/10/15 02:38:01;;;;;;;28.00;3.67;;;12.60;99.90;;;;;;5058790;28;20482;-84
2021/10/15 02:40:29;;;;;;;25.23;3.43;;;12.60;99.90;;;;;;5061674;28;20551;-84
2021/10/15 02:42:56;;;;;;;26.07;3.50;;;12.50;99.90;;;;;;5059964;28;21053;-85
2021/10/15 02:45:23;;;;;;;24.23;3.47;;;12.50;99.90;;;;;;5060689;28;20454;-84
2021/10/15 02:47:51;;;;;;;21.20;3.13;;;12.50;99.90;;;;;;5060251;28;20454;-85
2021/10/15 02:50:18;;;;;;;24.50;3.30;;;12.60;99.90;;;;;;5062487;28;20490;-85
2021/10/15 02:52:45;;;;;;;29.93;2.97;;;12.50;99.90;;;;;;5060536;28;20505;-84
2021/10/15 02:55:12;;;;;;;27.70;3.57;;;12.50;99.90;;;;;;5059195;28;20454;-86
2021/10/15 02:57:38;;;;;;;26.80;4.57;;;12.50;99.90;;;;;;5060292;28;21020;-85
2021/10/15 03:00:07;;;;;;;22.53;3.90;;;12.50;99.90;;;;;;5059547;28;20970;-83
2021/10/15 03:02:34;;;;;;;26.30;3.87;;;12.50;99.90;;;;;;5061991;28;20458;-85
2021/10/15 03:05:02;;;;;;;26.93;4.30;;;12.60;99.90;;;;;;5062921;28;20452;-85
2021/10/15 03:07:29;;;;;;;26.40;3.90;;;12.60;99.90;;;;;;5061322;28;20455;-87
2021/10/15 03:09:56;;;;;;;26.87;3.70;;;12.60;99.90;;;;;;5059653;28;20483;-85
2021/10/15 03:12:23;;;;;;;24.00;4.20;;;12.50;99.90;;;;;;5059227;28;20986;-85
2021/10/15 03:14:50;;;;;;;25.57;3.33;;;12.50;99.90;;;;;;5058969;28;20461;-84
2021/10/15 03:17:17;;;;;;;25.00;4.07;;;12.50;99.90;;;;;;5058577;28;20459;-85
2021/10/15 03:19:44;;;;;;;27.00;5.13;;;12.40;99.90;;;;;;5058908;28;20446;-85
2021/10/15 03:22:12;;;;;;;24.63;3.30;;;12.40;99.90;;;;;;5058545;28;20487;-85
2021/10/15 03:24:38;;;;;;;22.67;3.10;;;12.60;99.90;;;;;;5058675;28;20947;-84
2021/10/15 03:27:05;;;;;;;24.70;3.80;;;12.50;99.90;;;;;;5058280;28;20460;-84
2021/10/15 03:29:32;;;;;;;26.37;3.87;;;12.50;99.90;;;;;;5059196;28;20493;-85
2021/10/15 03:31:59;;;;;;;26.73;4.13;;;12.50;99.90;;;;;;5059288;28;20517;-85
2021/10/15 03:34:26;;;;;;;23.87;4.17;;;12.50;99.90;;;;;;5039154;28;20445;-85
2021/10/15 03:36:53;;;;;;;25.33;4.13;;;12.50;99.90;;;;;;5038156;28;20465;-83
2021/10/15 03:39:21;;;;;;;23.30;3.63;;;12.50;99.90;;;;;;5040009;28;20446;-85
2021/10/15 03:41:48;;;;;;;23.13;4.00;;;12.50;99.90;;;;;;5041082;28;20483;-85
2021/10/15 03:44:15;;;;;;;23.63;3.70;;;12.50;99.90;;;;;;5068360;28;20486;-85
2021/10/15 03:46:42;;;;;;;24.73;3.50;;;12.50;99.90;;;;;;5059516;28;20448;-82
2021/10/15 03:49:08;;;;;;;29.30;4.27;;;12.50;99.90;;;;;;5061512;28;20490;-82
2021/10/15 03:51:35;;;;;;;26.60;4.33;;;12.50;99.90;;;;;;5063404;28;20511;-84
2021/10/15 03:54:02;;;;;;;30.20;4.40;;;12.40;99.90;;;;;;5063886;28;20549;-82
2021/10/15 03:56:30;;;;;;;23.50;3.87;;;12.50;99.90;;;;;;5064100;28;20444;-83
2021/10/15 03:58:57;;;;;;;23.97;3.90;;;12.50;99.90;;;;;;5062515;28;20453;-82
2021/10/15 04:01:24;;;;;;;25.23;4.10;;;12.50;99.90;;;;;;5062810;28;20485;-83
2021/10/15 04:03:51;;;;;;;29.37;4.53;;;12.50;99.90;;;;;;5062022;28;20462;-83
2021/10/15 04:06:17;;;;;;;26.90;4.70;;;12.50;99.90;;;;;;5063824;28;20470;-83
2021/10/15 04:08:44;;;;;;;26.60;4.30;;;12.50;99.90;;;;;;5063379;28;20494;-83
2021/10/15 04:11:11;;;;;;;24.80;4.63;;;12.50;99.90;;;;;;5059425;28;20480;-82
2021/10/15 04:13:39;;;;;;;27.33;4.53;;;12.40;99.90;;;;;;5053776;28;20465;-82
2021/10/15 04:16:06;;;;;;;24.70;4.77;;;12.40;99.90;;;;;;5042856;28;20531;-83
2021/10/15 04:18:33;;;;;;;26.40;4.00;;;12.50;99.90;;;;;;5042126;28;20464;-81
2021/10/15 04:21:00;;;;;;;24.03;4.00;;;12.50;99.90;;;;;;5049809;28;20475;-82
2021/10/15 04:23:26;;;;;;;24.63;4.53;;;12.40;99.90;;;;;;5060191;28;21050;-82
2021/10/15 04:25:53;;;;;;;25.77;4.73;;;12.40;99.90;;;;;;5064685;28;20469;-81
2021/10/15 04:28:20;;;;;;;27.40;4.97;;;12.40;99.90;;;;;;5063539;28;20450;-82
2021/10/15 04:30:48;;;;;;;23.20;4.57;;;12.40;99.90;;;;;;5062893;28;21037;-82
2021/10/15 04:33:15;;;;;;;32.27;16.63;;;12.40;99.90;;;;;;5063617;28;20853;-79
2021/10/15 04:35:42;;;;;;;24.53;4.63;;;12.30;99.90;;;;;;5071743;28;20507;-81
2021/10/15 04:38:09;;;;;;;25.80;4.90;;;12.30;99.90;;;;;;5062116;28;20467;-80
2021/10/15 04:40:36;;;;;;;26.17;4.53;;;12.20;99.90;;;;;;5062824;28;20475;-80
2021/10/15 04:43:03;;;;;;;26.03;4.67;;;12.30;99.90;;;;;;5062592;28;20459;-81
2021/10/15 04:45:30;;;;;;;25.50;4.10;;;12.30;99.90;;;;;;5063896;28;20462;-81
2021/10/15 04:47:58;;;;;;;25.27;5.10;;;12.30;99.90;;;;;;5064093;28;20547;-79
2021/10/15 04:50:25;;;;;;;26.50;4.50;;;12.30;99.90;;;;;;5055990;28;20495;-80
2021/10/15 04:52:52;;;;;;;27.43;4.63;;;12.40;99.90;;;;;;5061270;28;20448;-80
2021/10/15 04:55:19;;;;;;;24.67;4.50;;;12.40;99.90;;;;;;5065964;28;20442;-80
2021/10/15 04:57:46;;;;;;;30.50;5.70;;;12.30;99.90;;;;;;5062685;28;20546;-81
2021/10/15 05:00:13;;;;;;;24.80;4.30;;;12.30;99.90;;;;;;5062137;28;20468;-80
2021/10/15 05:02:40;;;;;;;25.07;5.30;;;12.30;99.90;;;;;;5060661;28;20456;-80
2021/10/15 05:05:09;;;;;;;25.00;4.33;;;12.30;99.90;;;;;;5059806;28;20463;-80
2021/10/15 05:07:38;;;;;;;23.03;3.63;;;12.40;99.90;;;;;;5061057;28;20495;-81
2021/10/15 05:10:06;;;;;;;20.67;4.43;;;12.40;99.90;;;;;;5063911;28;20487;-82
2021/10/15 05:12:33;;;;;;;22.07;3.73;;;12.70;99.90;;;;;;5066784;28;20461;-81
2021/10/15 05:14:59;;;;;;;23.50;4.57;;;12.70;99.90;;;;;;5063673;28;20458;-81
2021/10/15 05:17:26;;;;;;;29.87;4.70;;;12.90;99.90;;;;;;5062609;28;20539;-81
2021/10/15 05:19:53;;;;;;;25.33;4.83;;;12.80;99.90;;;;;;5061520;28;20455;-80
2021/10/15 05:22:21;;;;;;;29.80;5.30;;;12.80;99.90;;;;;;5060964;28;20459;-82
2021/10/15 05:24:48;;;;;;;25.07;5.00;;;12.80;99.90;;;;;;5060514;28;20478;-82
2021/10/15 05:27:15;;;;;;;24.27;4.83;;;12.70;99.90;;;;;;5059326;28;20543;-83
2021/10/15 05:29:47;;;;;;;25.87;4.90;;;12.60;99.90;;;;;;5059726;28;20488;-82
2021/10/15 05:32:14;;;;;;;26.50;5.33;;;12.50;99.90;;;;;;5059898;28;20467;-83
2021/10/15 05:34:41;;;;;;;26.20;5.40;;;12.40;99.90;;;;;;5059249;28;20449;-82
2021/10/15 05:37:08;;;;;;;22.63;4.87;;;12.40;99.90;;;;;;5060059;28;20535;-82
2021/10/15 05:39:36;;;;;;;26.33;5.00;;;12.40;99.90;;;;;;5060818;28;20458;-85
2021/10/15 05:42:03;;;;;;;32.60;5.70;;;12.40;99.90;;;;;;5060571;28;20478;-82
2021/10/15 05:44:30;;;;;;;23.40;5.43;;;12.30;99.90;;;;;;5072467;28;20463;-82
2021/10/15 05:47:04;;;;;;;26.10;5.13;;;12.30;99.90;;;;;;5057622;28;20454;-82
2021/10/15 05:49:31;;;;;;;25.57;5.40;;;12.30;99.90;;;;;;5057426;28;20526;-82
2021/10/15 05:52:04;;;;;;;25.13;5.00;;;12.30;99.90;;;;;;5057625;28;20543;-84
2021/10/15 05:54:39;;;;;;;25.40;4.57;;;12.20;99.90;;;;;;5056616;28;20539;-82
2021/10/15 05:57:27;;;;;;;28.17;6.10;;;12.20;99.90;;;;;;5056749;28;20537;-83
2021/10/15 05:59:53;;;;;;;24.90;4.70;;;12.10;99.90;;;;;;5057724;28;20439;-84
2021/10/15 06:02:22;;;;;;;27.60;4.73;;;12.20;99.90;;;;;;5060123;28;20439;-84
2021/10/15 06:16:07;;;;;;;30.70;5.30;;;12.20;99.90;;;;;;5048309;28;20533;-83
2021/10/15 06:18:40;;;;;;;25.77;5.07;;;12.20;99.90;;;;;;5056076;28;20484;-83
2021/10/15 06:21:07;;;;;;;25.87;5.13;;;12.20;99.90;;;;;;5057372;28;20458;-84
2021/10/15 06:23:34;;;;;;;25.67;5.67;;;12.30;99.90;;;;;;5057055;28;20448;-83
2021/10/15 06:26:01;;;;;;;22.50;4.73;;;12.30;99.90;;;;;;5056299;28;20443;-85
2021/10/15 06:28:30;;;;;;;22.10;4.20;;;12.40;99.90;;;;;;5062412;28;20476;-84
2021/10/15 06:30:57;;;;;;;22.87;4.97;;;12.30;99.90;;;;;;5056131;28;20491;-84
2021/10/15 06:33:23;;;;;;;23.77;4.90;;;12.30;99.90;;;;;;5058742;28;20854;-85
2021/10/15 06:35:50;;;;;;;22.80;4.60;;;12.30;99.90;;;;;;5060454;28;20453;-85
2021/10/15 06:38:17;;;;;;;26.87;4.87;;;12.30;99.90;;;;;;5055083;28;20455;-85
2021/10/15 06:40:44;;;;;;;23.20;5.83;;;12.30;99.90;;;;;;5056656;28;20456;-85
2021/10/15 06:43:11;;;;;;;26.13;5.43;;;12.30;99.90;;;;;;5056097;28;20463;-81
2021/10/15 06:45:42;;;;;;;23.50;4.80;;;12.40;99.90;;;;;;5055240;28;20489;-81
2021/10/15 06:48:09;;;;;;;25.83;5.20;;;12.40;99.90;;;;;;5056943;28;20448;-84
2021/10/15 06:50:36;;;;;;;22.43;6.00;;;12.40;99.90;;;;;;5056805;28;20491;-84
2021/10/15 06:53:08;;;;;;;22.00;5.20;;;12.30;99.90;;;;;;5054957;28;20461;-85
2021/10/15 06:55:35;;;;;;;24.23;4.63;;;12.30;99.90;;;;;;5055591;28;20802;-85
2021/10/15 06:58:02;;;;;;;26.13;4.27;;;12.40;99.90;;;;;;5055501;28;20463;-85
2021/10/15 07:00:30;;;;;;;26.17;5.03;;;12.40;99.90;;;;;;5057326;28;20475;-84
2021/10/15 07:02:58;;;;;;;23.50;4.70;;;12.40;99.90;;;;;;5054373;28;20462;-86
2021/10/15 07:05:25;;;;;;;23.47;5.43;;;12.50;99.90;;;;;;5056334;28;20452;-86
2021/10/15 07:07:52;;;;;;;29.57;4.43;;;12.40;99.90;;;;;;5056079;28;20447;-85
2021/10/15 07:10:20;;;;;;;21.73;4.40;;;12.50;99.90;;;;;;5056402;28;20501;-85
2021/10/15 07:12:47;;;;;;;24.77;5.87;;;12.50;99.90;;;;;;5055370;28;20456;-85
2021/10/15 07:15:16;;;;;;;27.40;5.90;;;12.50;99.90;;;;;;5056834;28;20537;-86
2021/10/15 07:17:43;;;;;;;25.13;5.10;;;12.50;99.90;;;;;;5057799;28;20466;-84
2021/10/15 07:20:14;;;;;;;21.90;5.13;;;12.60;99.90;;;;;;5058418;28;20474;-86
2021/10/15 07:22:40;;;;;;;27.03;6.20;;;12.60;99.90;;;;;;5057582;28;20446;-84
2021/10/15 07:25:11;;;;;;;22.43;6.10;;;12.60;99.90;;;;;;5058762;28;20458;-85
2021/10/15 07:27:39;;;;;;;24.00;4.83;;;12.60;99.90;;;;;;5058589;28;20451;-86
2021/10/15 07:30:08;;;;;;;24.37;6.63;;;12.70;99.90;;;;;;5058835;28;20497;-84
2021/10/15 07:32:36;;;;;;;23.97;5.93;;;12.60;99.90;;;;;;5058526;28;20533;-85
2021/10/15 07:35:03;;;;;;;23.30;5.30;;;12.60;99.90;;;;;;5052444;28;20967;-84
2021/10/15 07:37:32;;;;;;;27.37;5.90;;;12.70;99.90;;;;;;5047198;28;20456;-85
2021/10/15 07:39:59;;;;;;;24.83;5.63;;;12.80;99.90;;;;;;5047885;28;20538;-83
2021/10/15 07:42:26;;;;;;;27.90;6.20;;;12.80;99.90;;;;;;5063668;28;20453;-84
2021/10/15 07:44:53;;;;;;;27.03;6.40;;;12.70;99.90;;;;;;5053701;28;20532;-83
2021/10/15 07:47:20;;;;;;;26.63;6.60;;;12.70;99.90;;;;;;5055048;28;20464;-85
2021/10/15 07:49:46;;;;;;;28.33;6.50;;;12.70;99.90;;;;;;5056477;28;20461;-83
2021/10/15 07:52:13;;;;;;;24.13;6.37;;;12.80;99.90;;;;;;5057348;28;20465;-84
2021/10/15 07:54:42;;;;;;;25.80;6.33;;;12.70;99.90;;;;;;5057652;28;20542;-85
2021/10/15 07:57:12;;;;;;;25.17;6.50;;;12.70;99.90;;;;;;5044707;28;20519;-85
2021/10/15 07:59:38;;;;;;;29.90;6.27;;;12.90;99.90;;;;;;5046010;28;20509;-84
2021/10/15 08:02:05;;;;;;;22.83;5.70;;;12.90;99.90;;;;;;5046180;28;20469;-83
2021/10/15 08:04:32;;;;;;;27.40;6.90;;;13.00;99.90;;;;;;5055451;28;20451;-84
2021/10/15 08:06:59;;;;;;;26.67;7.07;;;13.00;99.90;;;;;;5066539;28;20448;-85
2021/10/15 08:09:26;;;;;;;21.17;6.60;;;13.00;99.90;;;;;;5059934;28;20454;-85
2021/10/15 08:11:54;;;;;;;22.20;6.00;;;13.00;99.90;;;;;;5059139;28;21078;-85
2021/10/15 08:14:22;;;;;;;21.13;5.30;;;13.10;99.90;;;;;;5055337;28;20466;-84
2021/10/15 08:16:50;;;;;;;24.50;6.30;;;13.10;99.90;;;;;;5056485;28;20459;-85
2021/10/15 08:19:16;;;;;;;22.80;5.80;;;13.20;99.90;;;;;;5052532;28;20536;-85
2021/10/15 08:21:43;;;;;;;25.43;6.00;;;13.20;99.90;;;;;;5058460;28;20933;-84
2021/10/15 08:24:11;;;;;;;24.37;5.93;;;13.20;99.90;;;;;;5055209;28;20523;-84
2021/10/15 08:26:37;;;;;;;24.83;5.87;;;13.30;99.90;;;;;;5058930;28;20461;-84
2021/10/15 08:29:06;;;;;;;26.83;6.00;;;13.30;99.90;;;;;;5055456;28;20462;-84
2021/10/15 08:31:33;;;;;;;24.67;6.30;;;13.30;99.90;;;;;;5057646;28;20516;-83
2021/10/15 08:34:01;;;;;;;33.33;8.07;;;13.30;99.90;;;;;;5060940;28;20474;-84
2021/10/15 08:36:28;;;;;;;23.00;7.10;;;13.30;99.90;;;;;;5062827;28;20494;-83
2021/10/15 08:38:55;;;;;;;21.07;7.03;;;13.30;99.90;;;;;;5059865;28;20457;-84
2021/10/15 08:41:23;;;;;;;24.80;6.63;;;13.30;99.90;;;;;;5060913;28;20483;-84
2021/10/15 08:43:53;;;;;;;21.20;6.20;;;13.30;99.90;;;;;;5058795;28;20984;-84
2021/10/15 08:46:22;;;;;;;25.00;6.33;;;13.20;99.90;;;;;;5061776;28;20960;-84
2021/10/15 08:48:49;;;;;;;20.60;6.53;;;13.20;99.90;;;;;;5047617;28;20450;-84
2021/10/15 08:51:16;;;;;;;21.53;6.53;;;13.10;99.90;;;;;;5061233;28;20903;-83
2021/10/15 08:53:47;;;;;;;21.20;7.23;;;13.00;99.90;;;;;;5063253;28;20899;-83
2021/10/15 08:56:17;;;;;;;29.53;8.30;;;12.90;99.90;;;;;;5067222;28;20450;-83
2021/10/15 08:58:45;;;;;;;26.30;8.00;;;12.90;99.90;;;;;;5064117;28;20666;-83
2021/10/15 09:01:18;;;;;;;25.97;8.93;;;12.80;99.90;;;;;;5063786;28;20996;-84
2021/10/15 09:03:47;;;;;;;22.07;7.60;;;12.60;99.90;;;;;;5061214;28;20468;-84
2021/10/15 09:06:18;;;;;;;20.13;7.83;;;12.60;99.90;;;;;;5063260;28;20456;-83
2021/10/15 09:08:54;;;;;;;26.87;8.97;;;12.60;99.90;;;;;;5060892;28;20526;-83
2021/10/15 09:11:30;;;;;;;24.97;9.50;;;12.60;99.90;;;;;;5061523;28;20605;-83
2021/10/15 09:14:09;;;;;;;25.63;9.00;;;12.60;99.90;;;;;;5053254;28;20468;-85
2021/10/15 09:17:00;;;;;;;22.10;8.90;;;12.60;99.90;;;;;;5061938;28;20440;-84
2021/10/15 09:19:32;;;;;;;29.43;10.47;;;12.60;99.90;;;;;;5057837;28;20453;-83
2021/10/15 09:22:08;;;;;;;25.00;10.47;;;12.60;99.90;;;;;;5061472;28;20461;-84
2021/10/15 09:24:41;;;;;;;28.43;10.50;;;12.60;99.90;;;;;;5058060;28;20452;-85
2021/10/15 09:27:16;;;;;;;21.77;9.63;;;12.70;99.90;;;;;;5056565;28;20451;-85
2021/10/15 09:29:44;;;;;;;24.63;9.60;;;12.70;99.90;;;;;;5057236;28;20459;-85
2021/10/15 09:32:15;;;;;;;23.07;10.60;;;12.80;99.90;;;;;;5057539;28;20489;-84
2021/10/15 09:34:44;;;;;;;24.10;10.10;;;12.80;99.90;;;;;;5060613;28;20525;-84
2021/10/15 09:37:13;;;;;;;26.30;11.93;;;12.80;99.90;;;;;;5054698;28;20910;-84
2021/10/15 09:39:40;;;;;;;26.20;11.00;;;12.80;99.90;;;;;;5065715;28;20452;-83
2021/10/15 09:42:21;;;;;;;22.60;10.10;;;12.90;99.90;;;;;;5061410;28;20471;-84
2021/10/15 09:44:48;;;;;;;25.87;10.73;;;12.90;99.90;;;;;;5051495;28;20449;-82
2021/10/15 09:47:18;;;;;;;26.17;12.43;;;12.90;99.90;;;;;;5057665;28;20508;-83
2021/10/15 09:49:54;;;;;;;24.20;11.37;;;12.90;99.90;;;;;;5048861;28;20494;-83
2021/10/15 09:52:27;;;;;;;26.70;13.33;;;12.90;99.90;;;;;;5058979;28;20483;-83
2021/10/15 09:54:58;;;;;;;24.80;12.87;;;12.90;99.90;;;;;;5061215;28;20970;-83
2021/10/15 09:57:30;;;;;;;27.10;14.03;;;13.00;99.90;;;;;;5059466;28;20453;-82
2021/10/15 09:59:57;;;;;;;32.43;15.90;;;13.00;99.90;;;;;;5044215;28;20457;-81
2021/10/15 10:02:24;;;;;;;24.27;12.17;;;13.20;99.90;;;;;;5054483;28;20436;-82
2021/10/15 10:04:55;;;;;;;21.60;11.00;;;13.30;99.90;;;;;;5059311;28;20482;-81
2021/10/15 10:07:22;;;;;;;20.70;10.23;;;13.40;99.90;;;;;;5058027;28;20442;-81
2021/10/15 10:09:49;;;;;;;19.87;9.30;;;13.50;99.90;;;;;;5058292;28;20457;-80
2021/10/15 10:12:17;;;;;;;23.73;11.20;;;13.60;99.90;;;;;;5055017;28;20479;-80
2021/10/15 10:14:44;;;;;;;18.80;8.83;;;13.50;99.90;;;;;;5057390;28;20455;-81
2021/10/15 10:17:13;;;;;;;18.20;6.53;;;13.60;99.90;;;;;;5054100;28;20462;-81
2021/10/15 10:19:42;;;;;;;17.33;6.73;;;13.70;99.90;;;;;;5056902;28;20454;-83
2021/10/15 10:22:11;;;;;;;16.30;5.23;;;13.60;99.90;;;;;;5056555;28;20481;-82
2021/10/15 10:24:47;;;;;;;16.50;4.00;;;13.60;99.90;;;;;;5040180;28;20832;-81
2021/10/15 10:27:29;;;;;;;13.63;3.20;;;13.70;99.90;;;;;;5056632;28;20508;-82
2021/10/15 10:29:56;;;;;;;13.00;2.00;;;13.60;99.90;;;;;;5058444;28;20465;-84
2021/10/15 10:32:24;;;;;;;12.40;1.70;;;13.70;99.90;;;;;;5057866;28;20574;-83
2021/10/15 10:34:52;;;;;;;12.20;1.30;;;13.60;99.90;;;;;;5061588;28;20451;-83
2021/10/15 10:37:21;;;;;;;12.50;1.30;;;13.60;99.90;;;;;;5060494;28;20448;-82
2021/10/15 10:39:49;;;;;;;12.73;1.77;;;13.70;99.90;;;;;;5057371;28;20542;-82
2021/10/15 10:42:18;;;;;;;14.53;1.60;;;13.90;99.90;;;;;;5056721;28;20469;-82
2021/10/15 10:45:10;;;;;;;12.47;1.20;;;14.20;99.90;;;;;;5057237;28;20490;-82
2021/10/15 10:47:37;;;;;;;15.33;1.70;;;14.30;99.90;;;;;;5052464;28;20456;-84
2021/10/15 10:50:10;;;;;;;11.37;1.40;;;14.40;99.90;;;;;;5054570;28;20448;-82
2021/10/15 10:52:42;;;;;;;12.00;1.20;;;14.50;99.90;;;;;;5059911;28;20483;-82
2021/10/15 10:55:09;;;;;;;11.73;1.10;;;14.40;99.90;;;;;;5058189;28;20463;-83
2021/10/15 10:57:41;;;;;;;13.50;1.30;;;14.50;99.90;;;;;;5062613;28;20458;-84
2021/10/15 11:00:23;;;;;;;11.03;1.20;;;14.50;99.90;;;;;;5061119;28;20458;-83
2021/10/15 11:02:52;;;;;;;13.20;1.30;;;14.60;99.90;;;;;;5062003;28;20449;-84
2021/10/15 11:05:36;;;;;;;12.97;1.10;;;14.80;99.90;;;;;;5058326;28;20527;-84
2021/10/15 11:08:33;;;;;;;13.30;1.13;;;14.90;99.90;;;;;;5061620;28;20452;-84
2021/10/15 11:11:40;;;;;;;15.53;1.00;;;15.00;99.90;;;;;;5064687;28;20579;-83
2021/10/15 11:14:07;;;;;;;14.53;1.10;;;15.00;99.90;;;;;;5047787;28;20463;-82
2021/10/15 11:16:33;;;;;;;15.07;1.10;;;15.00;99.90;;;;;;5051345;28;20457;-82
2021/10/15 11:19:00;;;;;;;15.73;1.17;;;15.20;99.90;;;;;;5053429;28;20488;-82
2021/10/15 11:21:27;;;;;;;15.20;1.40;;;15.50;99.90;;;;;;5056120;28;20459;-83
2021/10/15 11:26:35;;;;;;;18.40;1.50;;;15.80;99.90;;;;;;5113646;22;20555;-84
2021/10/15 11:29:01;;;;;;;17.43;1.20;;;16.00;99.90;;;;;;5097945;28;20453;-83
2021/10/15 11:31:28;;;;;;;15.60;1.40;;;16.30;99.90;;;;;;5099123;28;20485;-82
2021/10/15 11:34:08;;;;;;;15.97;1.43;;;17.00;99.90;;;;;;5097969;28;20890;-83
2021/10/15 11:36:35;;;;;;;15.90;1.30;;;17.20;99.90;;;;;;5078923;28;20479;-83
2021/10/15 11:39:02;;;;;;;16.60;1.73;;;17.00;99.90;;;;;;5077886;28;20450;-84
2021/10/15 11:41:29;;;;;;;17.43;1.83;;;17.20;99.90;;;;;;5077629;28;20536;-81
2021/10/15 11:43:57;;;;;;;14.20;1.50;;;17.80;99.90;;;;;;5076921;28;20458;-81
2021/10/15 11:46:30;;;;;;;14.27;1.50;;;17.60;99.90;;;;;;5077020;28;20484;-84
2021/10/15 11:48:57;;;;;;;14.70;1.70;;;17.30;99.90;;;;;;5077894;28;20461;-82
2021/10/15 11:51:26;;;;;;;11.50;1.30;;;17.10;99.90;;;;;;5083082;28;20533;-83
2021/10/15 11:53:54;;;;;;;15.80;1.50;;;17.10;99.90;;;;;;5078909;28;20491;-84
2021/10/15 11:56:23;;;;;;;14.50;1.57;;;17.60;99.90;;;;;;5078924;28;20463;-83
2021/10/15 11:58:51;;;;;;;16.67;1.33;;;17.00;99.90;;;;;;5079538;28;20482;-81
2021/10/15 12:01:20;;;;;;;18.23;1.23;;;17.30;99.90;;;;;;5078608;28;20466;-82
2021/10/15 12:03:50;;;;;;;15.03;1.90;;;18.20;99.90;;;;;;5077063;28;20518;-83
2021/10/15 12:06:24;;;;;;;14.67;1.57;;;18.10;99.90;;;;;;5075456;28;20482;-81
2021/10/15 12:08:54;;;;;;;17.70;1.70;;;18.70;99.90;;;;;;5070673;28;20556;-83
2021/10/15 12:11:26;;;;;;;18.77;1.77;;;20.20;99.90;;;;;;5077296;28;20488;-82
2021/10/15 12:13:54;;;;;;;18.23;1.70;;;21.30;99.90;;;;;;5071820;28;20459;-81
2021/10/15 12:16:26;;;;;;;18.90;2.40;;;22.10;99.90;;;;;;5072398;28;20562;-83
2021/10/15 12:19:11;;;;;;;19.07;1.60;;;22.60;99.90;;;;;;5069970;28;20872;-83
2021/10/15 12:21:42;;;;;;;16.20;1.53;;;22.80;99.90;;;;;;5078119;28;20491;-82
2021/10/15 12:24:11;;;;;;;16.87;1.30;;;22.50;99.90;;;;;;5068267;28;20538;-81
2021/10/15 12:26:38;;;;;;;17.50;1.57;;;22.20;99.90;;;;;;5075416;28;20443;-83
2021/10/15 12:29:05;;;;;;;18.40;1.20;;;21.90;99.90;;;;;;5076335;28;20475;-83
2021/10/15 12:31:35;;;;;;;16.33;1.20;;;22.20;99.90;;;;;;5075012;28;20478;-82
2021/10/15 12:34:11;;;;;;;17.47;1.63;;;22.50;99.90;;;;;;5076687;28;20466;-82
2021/10/15 12:36:39;;;;;;;18.63;1.40;;;22.00;99.90;;;;;;5075417;28;20454;-83
2021/10/15 12:39:26;;;;;;;20.03;1.53;;;22.20;99.90;;;;;;5076779;28;20458;-82
2021/10/15 12:41:54;;;;;;;20.80;1.90;;;22.00;99.90;;;;;;5066467;28;20443;-82
2021/10/15 12:44:24;;;;;;;20.23;1.87;;;21.40;99.90;;;;;;5073189;28;20991;-83
2021/10/15 12:47:04;;;;;;;20.20;2.93;;;21.50;99.90;;;;;;5072273;28;20461;-80
2021/10/15 12:49:33;;;;;;;18.67;1.70;;;21.60;99.90;;;;;;5078244;28;20438;-82
2021/10/15 12:52:00;;;;;;;19.70;1.23;;;21.50;99.90;;;;;;5082510;28;20493;-84
2021/10/15 12:54:44;;;;;;;19.77;1.53;;;20.40;99.90;;;;;;5084620;28;20472;-82
2021/10/15 12:57:13;;;;;;;19.97;1.40;;;20.30;99.90;;;;;;5071915;28;20453;-82